createdAt,value
2023-05-10T00:00:58.498Z,16.88
2023-05-10T00:03:25.693Z,22.60
2023-05-10T00:05:52.800Z,17.27
2023-05-10T00:08:19.921Z,16.20
2023-05-10T00:10:46.953Z,18.40
2023-05-10T00:13:14.270Z,19.13
2023-05-10T00:15:41.423Z,19.85
2023-05-10T00:18:08.595Z,18.02
2023-05-10T00:20:35.625Z,20.35
2023-05-10T00:23:02.594Z,22.15
2023-05-10T00:25:29.661Z,17.85
2023-05-10T00:27:58.296Z,26.08
2023-05-10T00:30:25.702Z,18.50
2023-05-10T00:32:53.118Z,15.25
2023-05-10T00:35:20.482Z,22.13
2023-05-10T00:37:48.844Z,23.10
2023-05-10T00:40:16.398Z,21.27
2023-05-10T00:42:47.904Z,16.58
2023-05-10T00:45:14.930Z,21.42
2023-05-10T00:47:42.125Z,21.05
2023-05-10T00:50:10.292Z,16.52
2023-05-10T00:52:37.548Z,20.15
2023-05-10T00:55:05.663Z,19.55
2023-05-10T00:57:32.840Z,17.80
2023-05-10T01:00:00.598Z,22.58
2023-05-10T01:02:28.480Z,19.88
2023-05-10T01:04:57.636Z,17.17
2023-05-10T01:07:24.731Z,22.83
2023-05-10T01:09:51.754Z,18.65
2023-05-10T01:12:19.020Z,16.20
2023-05-10T01:14:46.480Z,18.27
2023-05-10T01:17:14.655Z,22.45
2023-05-10T01:19:42.708Z,15.45
2023-05-10T01:22:29.463Z,18.60
2023-05-10T01:25:28.711Z,17.88
2023-05-10T01:28:07.721Z,16.85
2023-05-10T01:31:09.844Z,17.45
2023-05-10T01:34:00.266Z,17.65
2023-05-10T01:36:49.390Z,20.05
2023-05-10T01:39:31.386Z,15.57
2023-05-10T01:42:01.473Z,16.58
2023-05-10T01:44:51.956Z,17.13
2023-05-10T01:47:44.100Z,16.98
2023-05-10T01:50:18.317Z,20.42
2023-05-10T01:52:52.333Z,19.05
2023-05-10T01:55:22.203Z,15.07
2023-05-10T01:57:57.881Z,12.43
2023-05-10T02:00:26.153Z,19.42
2023-05-10T02:02:55.458Z,15.45
2023-05-10T02:05:23.624Z,16.27
2023-05-10T02:07:51.796Z,17.55
2023-05-10T02:10:20.762Z,15.30
2023-05-10T02:12:51.124Z,12.95
2023-05-10T02:15:24.239Z,14.80
2023-05-10T02:17:53.683Z,15.00
2023-05-10T02:20:22.082Z,15.43
2023-05-10T02:22:51.720Z,16.27
2023-05-10T02:25:21.367Z,15.82
2023-05-10T02:27:49.471Z,14.85
2023-05-10T02:30:18.116Z,14.27
2023-05-10T02:32:46.651Z,13.50
2023-05-10T02:35:14.476Z,15.10
2023-05-10T02:37:43.075Z,16.13
2023-05-10T02:40:12.000Z,17.42
2023-05-10T02:42:43.285Z,13.77
2023-05-10T02:45:14.468Z,14.00
2023-05-10T02:47:44.822Z,14.15
2023-05-10T02:50:12.204Z,14.10
2023-05-10T02:52:53.189Z,12.98
2023-05-10T02:55:23.816Z,13.82
2023-05-10T02:57:57.923Z,13.10
2023-05-10T03:00:26.634Z,14.10
2023-05-10T03:02:53.928Z,13.05
2023-05-10T03:05:21.627Z,11.73
2023-05-10T03:07:49.680Z,11.18
2023-05-10T03:10:17.172Z,15.18
2023-05-10T03:12:51.249Z,12.77
2023-05-10T03:15:45.694Z,14.15
2023-05-10T03:18:22.418Z,16.85
2023-05-10T03:20:52.092Z,11.75
2023-05-10T03:23:19.007Z,13.45
2023-05-10T03:25:49.526Z,12.82
2023-05-10T03:28:18.897Z,10.50
2023-05-10T03:30:47.793Z,13.10
2023-05-10T03:33:15.372Z,17.27
2023-05-10T03:35:46.996Z,16.33
2023-05-10T03:38:15.257Z,13.07
2023-05-10T03:40:42.404Z,14.45
2023-05-10T03:43:09.578Z,12.05
2023-05-10T03:45:36.801Z,11.95
2023-05-10T03:48:04.491Z,14.45
2023-05-10T03:50:31.814Z,13.15
2023-05-10T03:52:59.244Z,13.80
2023-05-10T03:55:28.186Z,12.02
2023-05-10T03:57:55.376Z,12.75
2023-05-10T04:00:23.673Z,15.07
2023-05-10T04:02:54.593Z,13.43
2023-05-10T04:05:21.740Z,12.55
2023-05-10T04:07:50.367Z,17.13
2023-05-10T04:10:17.941Z,12.15
2023-05-10T04:12:47.089Z,14.80
2023-05-10T04:15:14.482Z,11.13
2023-05-10T04:17:41.624Z,13.93
2023-05-10T04:20:09.461Z,13.70
2023-05-10T04:22:36.834Z,11.85
2023-05-10T04:25:04.275Z,10.40
2023-05-10T04:27:32.173Z,11.52
2023-05-10T04:29:59.200Z,12.85
2023-05-10T04:32:26.174Z,9.10
2023-05-10T04:34:54.186Z,19.50
2023-05-10T04:37:22.502Z,15.20
2023-05-10T04:39:49.639Z,11.93
2023-05-10T04:42:16.714Z,8.45
2023-05-10T04:44:43.885Z,7.22
2023-05-10T04:47:12.722Z,9.05
2023-05-10T04:49:40.172Z,7.35
2023-05-10T04:52:07.383Z,7.38
2023-05-10T04:54:34.521Z,8.40
2023-05-10T04:57:01.559Z,8.32
2023-05-10T04:59:28.563Z,6.68
2023-05-10T05:01:55.593Z,10.05
2023-05-10T05:04:24.522Z,9.43
2023-05-10T05:06:53.743Z,7.78
2023-05-10T05:09:21.075Z,10.32
2023-05-10T05:11:48.076Z,10.60
2023-05-10T05:14:15.090Z,9.05
2023-05-10T05:16:42.188Z,8.13
2023-05-10T05:19:09.261Z,7.78
2023-05-10T05:21:36.703Z,12.40
2023-05-10T05:24:03.926Z,10.13
2023-05-10T05:26:30.947Z,6.75
2023-05-10T05:28:58.085Z,8.80
2023-05-10T05:31:25.252Z,6.75
2023-05-10T05:33:52.759Z,6.55
2023-05-10T05:36:19.840Z,6.75
2023-05-10T05:38:46.826Z,7.60
2023-05-10T05:41:13.822Z,8.65
2023-05-10T05:43:40.877Z,7.53
2023-05-10T05:46:08.011Z,6.97
2023-05-10T05:48:35.061Z,5.07
2023-05-10T05:51:02.842Z,6.57
2023-05-10T05:53:30.423Z,8.82
2023-05-10T05:55:59.055Z,18.50
2023-05-10T05:58:27.024Z,7.10
2023-05-10T06:00:54.139Z,10.52
2023-05-10T06:03:21.774Z,5.15
2023-05-10T06:05:49.311Z,4.63
2023-05-10T06:08:16.510Z,4.80
2023-05-10T06:10:43.614Z,9.07
2023-05-10T06:13:11.049Z,7.28
2023-05-10T06:15:38.610Z,7.45
2023-05-10T06:18:06.653Z,6.97
2023-05-10T06:20:33.751Z,6.18
2023-05-10T06:23:00.833Z,8.77
2023-05-10T06:25:27.821Z,6.75
2023-05-10T06:27:58.509Z,5.78
2023-05-10T06:30:29.863Z,6.65
2023-05-10T06:32:58.200Z,6.80
2023-05-10T06:35:25.721Z,5.80
2023-05-10T06:37:52.962Z,4.90
2023-05-10T06:40:20.403Z,4.80
2023-05-10T06:42:51.376Z,7.05
2023-05-10T06:45:18.982Z,7.30
2023-05-10T06:47:46.971Z,6.07
2023-05-10T06:50:14.285Z,6.97
2023-05-10T06:52:41.401Z,6.90
2023-05-10T06:55:09.851Z,4.63
2023-05-10T06:57:37.220Z,7.25
2023-05-10T07:00:07.378Z,6.50
2023-05-10T07:02:35.290Z,5.93
2023-05-10T07:05:03.704Z,5.60
2023-05-10T07:07:32.737Z,4.30
2023-05-10T07:10:00.198Z,6.45
2023-05-10T07:12:27.594Z,9.55
2023-05-10T07:14:54.884Z,5.68
2023-05-10T07:17:21.989Z,4.97
2023-05-10T07:19:49.545Z,8.45
2023-05-10T07:22:17.921Z,4.28
2023-05-10T07:24:45.408Z,5.53
2023-05-10T07:27:12.549Z,11.07
2023-05-10T07:29:39.941Z,5.68
2023-05-10T07:32:07.385Z,8.73
2023-05-10T07:34:34.553Z,6.32
2023-05-10T07:37:02.415Z,4.32
2023-05-10T07:39:29.478Z,4.88
2023-05-10T07:41:56.883Z,5.28
2023-05-10T07:44:24.411Z,6.53
2023-05-10T07:46:51.786Z,6.13
2023-05-10T07:49:18.906Z,4.68
2023-05-10T07:51:46.024Z,6.03
2023-05-10T07:54:13.800Z,7.75
2023-05-10T07:56:45.797Z,7.43
2023-05-10T07:59:17.252Z,7.13
2023-05-10T08:01:45.642Z,5.70
2023-05-10T08:04:12.963Z,5.43
2023-05-10T08:06:40.970Z,4.93
2023-05-10T08:09:08.512Z,5.93
2023-05-10T08:11:36.285Z,4.93
2023-05-10T08:14:03.438Z,4.43
2023-05-10T08:16:30.540Z,4.43
2023-05-10T08:18:57.752Z,4.78
2023-05-10T08:21:25.057Z,4.45
2023-05-10T08:23:52.208Z,4.45
2023-05-10T08:26:19.256Z,4.07
2023-05-10T08:28:46.290Z,8.15
2023-05-10T08:31:13.340Z,4.25
2023-05-10T08:33:42.283Z,5.43
2023-05-10T08:36:10.884Z,3.67
2023-05-10T08:38:39.030Z,3.97
2023-05-10T08:41:07.235Z,6.68
2023-05-10T08:43:36.989Z,5.03
2023-05-10T08:46:06.455Z,6.63
2023-05-10T08:48:35.685Z,4.30
2023-05-10T08:51:04.828Z,4.38
2023-05-10T08:53:34.254Z,4.32
2023-05-10T08:56:02.954Z,4.75
2023-05-10T08:58:30.049Z,3.85
2023-05-10T09:00:58.194Z,5.88
2023-05-10T09:03:25.369Z,6.10
2023-05-10T09:05:52.920Z,7.97
2023-05-10T09:08:21.312Z,3.40
2023-05-10T09:10:49.790Z,5.10
2023-05-10T09:13:18.204Z,6.47
2023-05-10T09:15:46.619Z,6.82
2023-05-10T09:18:14.217Z,5.43
2023-05-10T09:20:41.990Z,7.78
2023-05-10T09:23:09.390Z,7.50
2023-05-10T09:25:36.736Z,3.60
2023-05-10T09:28:08.626Z,3.47
2023-05-10T09:30:36.483Z,4.93
2023-05-10T09:33:03.966Z,3.25
2023-05-10T09:35:33.498Z,4.32
2023-05-10T09:38:05.426Z,4.82
2023-05-10T09:40:33.139Z,5.63
2023-05-10T09:43:07.038Z,3.72
2023-05-10T09:45:38.282Z,4.05
2023-05-10T09:48:07.177Z,5.47
2023-05-10T09:50:35.286Z,3.97
2023-05-10T09:53:04.693Z,4.07
2023-05-10T09:55:45.869Z,6.35
2023-05-10T09:58:16.876Z,4.15
2023-05-10T10:00:45.873Z,3.42
2023-05-10T10:03:18.413Z,4.70
2023-05-10T10:05:47.164Z,4.50
2023-05-10T10:08:15.753Z,4.03
2023-05-10T10:10:46.474Z,3.95
2023-05-10T10:13:13.918Z,3.60
2023-05-10T10:15:41.086Z,6.20
2023-05-10T10:18:13.529Z,3.70
2023-05-10T10:20:41.191Z,3.65
2023-05-10T10:23:09.391Z,5.38
2023-05-10T10:25:36.988Z,4.35
2023-05-10T10:28:16.868Z,4.60
2023-05-10T10:30:49.650Z,5.13
2023-05-10T10:33:35.338Z,3.80
2023-05-10T10:36:04.731Z,3.47
2023-05-10T10:38:39.591Z,5.63
2023-05-10T10:41:13.276Z,4.22
2023-05-10T10:43:40.375Z,6.13
2023-05-10T10:46:18.896Z,5.63
2023-05-10T10:49:09.681Z,5.45
2023-05-10T10:51:40.803Z,4.57
2023-05-10T10:54:11.815Z,3.13
2023-05-10T10:56:39.364Z,5.53
2023-05-10T10:59:06.415Z,4.65
2023-05-10T11:01:36.620Z,4.38
2023-05-10T11:04:06.721Z,4.28
2023-05-10T11:06:35.962Z,5.45
2023-05-10T11:09:11.228Z,4.20
2023-05-10T11:11:52.015Z,3.95
2023-05-10T11:14:23.598Z,4.30
2023-05-10T11:16:51.395Z,4.68
2023-05-10T11:19:19.519Z,3.35
2023-05-10T11:22:14.283Z,4.65
2023-05-10T11:24:41.410Z,2.78
2023-05-10T11:27:08.925Z,2.65
2023-05-10T11:29:36.217Z,6.78
2023-05-10T11:32:05.572Z,3.42
2023-05-10T11:34:36.389Z,3.88
2023-05-10T11:37:03.461Z,3.15
2023-05-10T11:39:34.717Z,5.30
2023-05-10T11:42:02.013Z,3.58
2023-05-10T11:44:35.580Z,4.10
2023-05-10T11:47:03.442Z,4.25
2023-05-10T11:49:30.872Z,5.28
2023-05-10T11:52:08.286Z,3.60
2023-05-10T11:54:38.638Z,5.00
2023-05-10T11:57:06.036Z,3.75
2023-05-10T11:59:33.053Z,3.70
2023-05-10T12:02:00.486Z,4.32
2023-05-10T12:04:30.657Z,4.05
2023-05-10T12:06:58.076Z,4.40
2023-05-10T12:09:39.742Z,5.75
2023-05-10T12:12:10.191Z,4.28
2023-05-10T12:14:37.736Z,5.15
2023-05-10T12:17:04.758Z,5.70
2023-05-10T12:19:39.630Z,4.75
2023-05-10T12:22:07.374Z,4.63
2023-05-10T12:24:40.241Z,6.28
2023-05-10T12:27:09.435Z,3.85
2023-05-10T12:29:37.097Z,6.38
2023-05-10T12:32:04.364Z,3.60
2023-05-10T12:34:34.907Z,4.82
2023-05-10T12:37:03.542Z,3.55
2023-05-10T12:39:45.083Z,4.63
2023-05-10T12:42:12.868Z,5.00
2023-05-10T12:44:40.942Z,7.20
2023-05-10T12:47:08.409Z,5.45
2023-05-10T12:49:35.546Z,3.42
2023-05-10T12:52:02.856Z,4.57
2023-05-10T12:54:29.999Z,5.05
2023-05-10T12:56:56.997Z,5.57
2023-05-10T12:59:24.059Z,3.83
2023-05-10T13:01:51.222Z,7.90
2023-05-10T13:04:18.315Z,5.45
2023-05-10T13:06:45.532Z,6.47
2023-05-10T13:09:12.656Z,5.53
2023-05-10T13:11:39.869Z,5.53
2023-05-10T13:14:06.871Z,4.30
2023-05-10T13:16:34.289Z,5.97
2023-05-10T13:19:01.445Z,8.57
2023-05-10T13:21:29.002Z,6.30
2023-05-10T13:23:56.649Z,6.63
2023-05-10T13:26:23.644Z,6.20
2023-05-10T13:28:52.794Z,4.65
2023-05-10T13:31:19.997Z,4.47
2023-05-10T13:33:47.116Z,4.03
2023-05-10T13:36:14.320Z,4.13
2023-05-10T13:38:41.378Z,5.72
2023-05-10T13:41:08.489Z,5.43
2023-05-10T13:43:36.147Z,3.65
2023-05-10T13:46:03.982Z,7.05
2023-05-10T13:48:31.214Z,5.07
2023-05-10T13:50:58.320Z,5.63
2023-05-10T13:53:25.684Z,3.90
2023-05-10T13:55:52.852Z,4.68
2023-05-10T13:58:20.334Z,4.97
2023-05-10T14:00:47.395Z,4.80
2023-05-10T14:03:14.459Z,4.38
2023-05-10T14:05:41.552Z,6.38
2023-05-10T14:08:10.435Z,7.00
2023-05-10T14:10:38.026Z,6.40
2023-05-10T14:13:05.205Z,6.53
2023-05-10T14:15:32.231Z,4.28
2023-05-10T14:17:59.579Z,5.47
2023-05-10T14:20:27.131Z,4.78
2023-05-10T14:22:54.096Z,4.03
2023-05-10T14:25:21.397Z,6.85
2023-05-10T14:27:48.416Z,3.83
2023-05-10T14:30:16.106Z,4.18
2023-05-10T14:32:43.334Z,4.97
2023-05-10T14:35:13.104Z,5.93
2023-05-10T14:37:40.660Z,5.72
2023-05-10T14:40:08.477Z,6.25
2023-05-10T14:42:36.062Z,3.97
2023-05-10T14:45:03.442Z,5.22
2023-05-10T14:47:32.681Z,4.70
2023-05-10T14:49:59.798Z,5.32
2023-05-10T14:52:26.957Z,6.07
2023-05-10T14:54:53.933Z,6.85
2023-05-10T14:57:20.943Z,8.40
2023-05-10T14:59:48.433Z,8.00
2023-05-10T15:02:16.392Z,5.22
2023-05-10T15:04:43.877Z,4.63
2023-05-10T15:07:15.385Z,4.13
2023-05-10T15:09:42.456Z,8.20
2023-05-10T15:12:09.447Z,8.38
2023-05-10T15:14:37.468Z,7.07
2023-05-10T15:17:07.389Z,6.10
2023-05-10T15:19:34.452Z,5.93
2023-05-10T15:22:01.440Z,7.63
2023-05-10T15:24:28.611Z,4.78
2023-05-10T15:26:56.117Z,6.95
2023-05-10T15:29:23.297Z,5.03
2023-05-10T15:31:52.108Z,4.75
2023-05-10T15:34:19.768Z,7.82
2023-05-10T15:36:47.167Z,5.97
2023-05-10T15:39:14.241Z,6.22
2023-05-10T15:41:41.571Z,7.15
2023-05-10T15:44:08.572Z,7.30
2023-05-10T15:46:35.868Z,4.30
2023-05-10T15:49:02.984Z,4.43
2023-05-10T15:51:30.129Z,9.10
2023-05-10T15:54:06.404Z,5.55
2023-05-10T15:56:34.663Z,8.50
2023-05-10T15:59:01.816Z,5.82
2023-05-10T16:01:29.314Z,5.30
2023-05-10T16:03:56.672Z,4.63
2023-05-10T16:06:23.626Z,4.53
2023-05-10T16:08:51.373Z,5.60
2023-05-10T16:11:19.016Z,4.97
2023-05-10T16:13:46.156Z,4.63
2023-05-10T16:16:13.411Z,5.60
2023-05-10T16:18:40.652Z,6.45
2023-05-10T16:21:07.806Z,5.95
2023-05-10T16:23:34.881Z,6.05
2023-05-10T16:26:02.323Z,4.65
2023-05-10T16:28:29.295Z,7.35
2023-05-10T16:30:56.344Z,6.30
2023-05-10T16:33:23.401Z,7.55
2023-05-10T16:35:50.434Z,4.70
2023-05-10T16:38:17.431Z,4.18
2023-05-10T16:40:44.447Z,4.28
2023-05-10T16:43:11.431Z,4.65
2023-05-10T16:45:38.581Z,5.20
2023-05-10T16:48:06.461Z,5.15
2023-05-10T16:50:33.577Z,6.55
2023-05-10T16:53:00.831Z,6.65
2023-05-10T16:55:28.004Z,8.45
2023-05-10T16:57:59.866Z,12.15
2023-05-10T17:00:27.519Z,15.48
2023-05-10T17:02:55.083Z,23.90
2023-05-10T17:05:22.838Z,15.18
2023-05-10T17:07:50.644Z,19.48
2023-05-10T17:10:18.114Z,16.05
2023-05-10T17:12:45.752Z,19.65
2023-05-10T17:15:13.143Z,22.33
2023-05-10T17:17:40.402Z,21.67
2023-05-10T17:20:08.463Z,25.58
2023-05-10T17:22:36.024Z,16.60
2023-05-10T17:25:04.333Z,18.88
2023-05-10T17:27:32.191Z,17.05
2023-05-10T17:29:59.731Z,18.02
2023-05-10T17:32:27.056Z,15.48
2023-05-10T17:34:54.130Z,18.25
2023-05-10T17:37:21.201Z,22.08
2023-05-10T17:39:48.254Z,20.17
2023-05-10T17:42:17.673Z,20.83
2023-05-10T17:44:44.661Z,19.60
2023-05-10T17:47:11.734Z,30.42
2023-05-10T17:49:39.914Z,18.88
2023-05-10T17:52:07.539Z,22.52
2023-05-10T17:54:34.933Z,31.67
2023-05-10T17:57:02.198Z,18.30
2023-05-10T17:59:29.469Z,20.38
2023-05-10T18:01:56.643Z,26.90
2023-05-10T18:04:23.947Z,19.10
2023-05-10T18:06:51.124Z,13.73
2023-05-10T18:09:18.418Z,17.95
2023-05-10T18:11:45.460Z,17.20
2023-05-10T18:14:12.533Z,11.43
2023-05-10T18:16:39.580Z,10.27
2023-05-10T18:19:06.702Z,13.95
2023-05-10T18:21:33.996Z,16.05
2023-05-10T18:24:01.822Z,22.45
2023-05-10T18:26:29.022Z,31.33
2023-05-10T18:28:56.020Z,28.95
2023-05-10T18:31:23.955Z,25.90
2023-05-10T18:33:51.131Z,27.92
2023-05-10T18:36:18.245Z,37.45
2023-05-10T18:38:45.773Z,29.80
2023-05-10T18:41:14.608Z,28.50
2023-05-10T18:43:42.812Z,24.27
2023-05-10T18:46:09.901Z,19.83
2023-05-10T18:48:36.942Z,18.95
2023-05-10T18:51:04.411Z,39.97
2023-05-10T18:53:32.666Z,25.60
2023-05-10T18:56:00.220Z,21.30
2023-05-10T18:58:28.356Z,22.58
2023-05-10T19:00:55.730Z,15.88
2023-05-10T19:03:22.987Z,16.83
2023-05-10T19:05:50.095Z,21.95
2023-05-10T19:08:17.598Z,15.32
2023-05-10T19:10:45.911Z,12.73
2023-05-10T19:13:13.040Z,14.55
2023-05-10T19:15:40.921Z,11.27
2023-05-10T19:18:08.727Z,15.82
2023-05-10T19:20:38.163Z,19.30
2023-05-10T19:23:10.037Z,19.50
2023-05-10T19:25:37.591Z,23.42
2023-05-10T19:28:04.697Z,22.23
2023-05-10T19:30:31.906Z,18.48
2023-05-10T19:32:59.000Z,18.00
2023-05-10T19:35:26.179Z,20.23
2023-05-10T19:37:53.325Z,20.50
2023-05-10T19:40:20.451Z,22.48
2023-05-10T19:42:47.699Z,18.80
2023-05-10T19:45:15.997Z,18.23
2023-05-10T19:47:43.562Z,18.58
2023-05-10T19:50:12.512Z,19.75
2023-05-10T19:52:39.914Z,21.05
2023-05-10T19:55:08.027Z,21.02
2023-05-10T19:57:35.146Z,23.38
2023-05-10T20:00:02.609Z,24.73
2023-05-10T20:02:38.629Z,20.40
2023-05-10T20:05:05.987Z,17.75
2023-05-10T20:07:33.018Z,17.50
2023-05-10T20:10:00.160Z,16.70
2023-05-10T20:12:27.939Z,16.77
2023-05-10T20:14:54.961Z,16.63
2023-05-10T20:17:22.084Z,17.77
2023-05-10T20:19:49.150Z,21.88
2023-05-10T20:22:16.192Z,20.75
2023-05-10T20:24:43.242Z,15.20
2023-05-10T20:27:10.240Z,18.08
2023-05-10T20:29:37.218Z,18.48
2023-05-10T20:32:04.402Z,17.40
2023-05-10T20:34:31.573Z,22.17
2023-05-10T20:36:58.713Z,22.20
2023-05-10T20:39:25.873Z,19.48
2023-05-10T20:41:54.710Z,21.90
2023-05-10T20:44:21.712Z,28.17
2023-05-10T20:46:48.924Z,23.48
2023-05-10T20:49:16.009Z,21.00
2023-05-10T20:51:43.145Z,24.85
2023-05-10T20:54:10.282Z,30.55
2023-05-10T20:56:37.355Z,28.60
2023-05-10T20:59:04.456Z,23.90
2023-05-10T21:01:31.994Z,31.15
2023-05-10T21:03:59.112Z,23.83
2023-05-10T21:06:26.410Z,24.25
2023-05-10T21:08:53.474Z,24.60
2023-05-10T21:11:20.907Z,25.10
2023-05-10T21:13:49.055Z,28.27
2023-05-10T21:16:16.127Z,27.30
2023-05-10T21:18:43.281Z,23.27
2023-05-10T21:21:10.386Z,23.65
2023-05-10T21:23:37.421Z,23.10
2023-05-10T21:26:04.972Z,28.60
2023-05-10T21:28:32.078Z,23.90
2023-05-10T21:30:59.123Z,20.73
2023-05-10T21:33:26.172Z,26.33
2023-05-10T21:35:53.256Z,24.30
2023-05-10T21:38:20.347Z,31.50
2023-05-10T21:40:47.388Z,28.15
2023-05-10T21:43:14.437Z,23.95
2023-05-10T21:45:41.503Z,19.98
2023-05-10T21:48:08.604Z,23.40
2023-05-10T21:50:35.705Z,25.98
2023-05-10T21:53:03.055Z,19.60
2023-05-10T21:55:30.092Z,22.00
2023-05-10T21:57:58.751Z,22.65
2023-05-10T22:00:26.612Z,17.52
2023-05-10T22:02:53.860Z,20.10
2023-05-10T22:05:21.333Z,21.75
2023-05-10T22:07:48.296Z,22.95
2023-05-10T22:10:15.722Z,28.45
2023-05-10T22:12:42.838Z,19.20
2023-05-10T22:15:10.958Z,18.20
2023-05-10T22:17:40.106Z,15.63
2023-05-10T22:20:08.776Z,18.70
2023-05-10T22:22:36.899Z,16.38
2023-05-10T22:25:07.344Z,18.50
2023-05-10T22:27:35.108Z,16.35
2023-05-10T22:30:02.929Z,13.90
2023-05-10T22:32:36.005Z,18.70
2023-05-10T22:35:03.468Z,21.42
2023-05-10T22:37:32.811Z,17.27
2023-05-10T22:39:59.884Z,13.98
2023-05-10T22:42:26.831Z,17.55
2023-05-10T22:44:53.883Z,18.73
2023-05-10T22:47:21.022Z,15.30
2023-05-10T22:49:48.518Z,15.90
2023-05-10T22:52:15.641Z,16.52
2023-05-10T22:54:42.811Z,16.23
2023-05-10T22:57:09.770Z,14.43
2023-05-10T22:59:36.795Z,17.60
2023-05-10T23:02:04.014Z,15.50
2023-05-10T23:04:31.122Z,16.05
2023-05-10T23:06:58.112Z,15.82
2023-05-10T23:09:25.075Z,10.20
2023-05-10T23:11:52.106Z,14.82
2023-05-10T23:14:19.149Z,18.05
2023-05-10T23:16:46.284Z,13.95
2023-05-10T23:19:13.380Z,20.00
2023-05-10T23:21:40.967Z,15.10
2023-05-10T23:24:08.694Z,15.73
2023-05-10T23:26:36.118Z,19.08
2023-05-10T23:29:03.125Z,15.60
2023-05-10T23:31:30.529Z,19.17
2023-05-10T23:33:57.583Z,14.02
2023-05-10T23:36:24.606Z,14.48
2023-05-10T23:38:51.630Z,13.27
2023-05-10T23:41:18.970Z,19.02
2023-05-10T23:43:45.969Z,14.45
2023-05-10T23:46:13.035Z,15.93
2023-05-10T23:48:40.097Z,19.13
2023-05-10T23:51:08.080Z,18.67
2023-05-10T23:53:35.184Z,16.10
2023-05-10T23:56:02.222Z,19.13
2023-05-10T23:58:29.675Z,19.08
